createdAt,value
2018-05-01T00:01:58.137Z,7.20
2018-05-01T00:04:01.508Z,7.10
2018-05-01T00:06:05.633Z,7.00
2018-05-01T00:08:09.789Z,7.00
2018-05-01T00:10:13.153Z,7.00
2018-05-01T00:12:16.508Z,7.00
2018-05-01T00:14:19.864Z,7.00
2018-05-01T00:16:23.242Z,6.80
2018-05-01T00:18:26.669Z,6.80
2018-05-01T00:20:30.006Z,6.80
2018-05-01T00:22:34.187Z,6.80
2018-05-01T00:24:37.595Z,6.80
2018-05-01T00:26:41.692Z,6.80
2018-05-01T00:28:45.059Z,6.80
2018-05-01T00:30:48.580Z,6.80
2018-05-01T00:32:51.929Z,6.80
2018-05-01T00:34:55.277Z,6.80
2018-05-01T00:36:59.403Z,6.90
2018-05-01T00:39:03.747Z,6.90
2018-05-01T00:41:07.109Z,6.90
2018-05-01T00:43:10.528Z,6.80
2018-05-01T00:45:13.909Z,6.90
2018-05-01T00:47:17.236Z,6.90
2018-05-01T00:49:20.606Z,6.90
2018-05-01T00:51:23.945Z,6.90
2018-05-01T00:53:27.308Z,7.00
2018-05-01T00:55:30.658Z,6.90
2018-05-01T00:57:34.001Z,6.90
2018-05-01T00:59:37.404Z,6.90
2018-05-01T01:01:40.786Z,6.90
2018-05-01T01:03:44.164Z,7.00
2018-05-01T01:05:47.525Z,7.00
2018-05-01T01:07:50.845Z,7.10
2018-05-01T01:09:54.235Z,7.10
2018-05-01T01:11:57.556Z,7.10
2018-05-01T01:14:01.767Z,6.90
2018-05-01T01:16:05.151Z,6.90
2018-05-01T01:18:09.278Z,7.00
2018-05-01T01:20:12.673Z,6.90
2018-05-01T01:22:16.766Z,7.00
2018-05-01T01:24:20.166Z,7.00
2018-05-01T01:26:23.530Z,7.10
2018-05-01T01:28:26.842Z,7.00
2018-05-01T01:30:30.211Z,7.00
2018-05-01T01:32:33.563Z,7.00
2018-05-01T01:34:36.951Z,6.90
2018-05-01T01:36:39.833Z,6.90
2018-05-01T01:38:43.519Z,6.90
2018-05-01T01:40:46.389Z,6.90
2018-05-01T01:42:49.286Z,6.90
2018-05-01T01:44:52.178Z,6.80
2018-05-01T01:46:55.082Z,6.80
2018-05-01T01:48:57.946Z,6.80
2018-05-01T01:51:00.789Z,6.80
2018-05-01T01:53:03.658Z,6.80
2018-05-01T01:55:06.548Z,6.90
2018-05-01T01:57:10.162Z,7.00
2018-05-01T01:59:13.801Z,6.90
2018-05-01T02:01:16.627Z,6.90
2018-05-01T02:03:20.234Z,6.90
2018-05-01T02:05:24.511Z,7.00
2018-05-01T02:07:27.363Z,7.00
2018-05-01T02:09:30.238Z,7.00
2018-05-01T02:11:33.120Z,6.90
2018-05-01T02:13:36.020Z,6.90
2018-05-01T02:15:38.931Z,7.00
2018-05-01T02:17:41.823Z,7.00
2018-05-01T02:19:45.459Z,7.10
2018-05-01T02:21:48.308Z,7.10
2018-05-01T02:23:51.916Z,7.10
2018-05-01T02:25:54.882Z,7.00
2018-05-01T02:27:57.730Z,7.00
2018-05-01T02:30:00.586Z,6.90
2018-05-01T02:32:03.477Z,6.90
2018-05-01T02:34:06.318Z,6.90
2018-05-01T02:36:09.197Z,6.90
2018-05-01T02:38:12.066Z,7.00
2018-05-01T02:40:15.720Z,6.90
2018-05-01T02:42:18.572Z,6.90
2018-05-01T02:44:21.525Z,6.90
2018-05-01T02:46:24.388Z,6.90
2018-05-01T02:48:27.251Z,6.80
2018-05-01T02:50:30.147Z,6.90
2018-05-01T02:52:33.012Z,7.00
2018-05-01T02:54:35.849Z,7.00
2018-05-01T02:56:38.742Z,7.20
2018-05-01T02:58:41.668Z,7.20
2018-05-01T03:00:44.545Z,7.10
2018-05-01T03:02:47.411Z,7.20
2018-05-01T03:04:50.255Z,7.10
2018-05-01T03:06:53.405Z,7.10
2018-05-01T03:08:57.123Z,7.00
2018-05-01T03:13:09.774Z,7.10
2018-05-01T03:15:12.683Z,7.10
2018-05-01T03:17:17.022Z,7.00
2018-05-01T03:19:20.685Z,7.00
2018-05-01T03:21:23.715Z,7.00
2018-05-01T03:23:26.633Z,6.90
2018-05-01T03:25:29.463Z,6.90
2018-05-01T03:27:32.699Z,6.80
2018-05-01T03:29:35.560Z,6.80
2018-05-01T03:31:38.528Z,6.80
2018-05-01T03:33:41.403Z,6.70
2018-05-01T03:35:45.046Z,6.70
2018-05-01T03:37:47.909Z,6.70
2018-05-01T03:39:50.765Z,6.70
2018-05-01T03:41:53.641Z,6.60
2018-05-01T03:43:56.558Z,6.60
2018-05-01T03:45:59.412Z,6.60
2018-05-01T03:48:03.043Z,6.50
2018-05-01T03:50:06.874Z,6.50
2018-05-01T03:52:09.789Z,6.50
2018-05-01T03:54:13.398Z,6.50
2018-05-01T03:56:16.240Z,6.50
2018-05-01T03:58:19.098Z,6.60
2018-05-01T04:00:21.979Z,6.60
2018-05-01T04:02:24.810Z,6.50
2018-05-01T04:04:28.415Z,6.50
2018-05-01T04:06:32.054Z,6.60
2018-05-01T04:08:34.884Z,6.60
2018-05-01T04:10:37.728Z,6.60
2018-05-01T04:12:40.651Z,6.70
2018-05-01T04:14:43.491Z,6.70
2018-05-01T04:16:46.346Z,6.80
2018-05-01T04:18:49.181Z,6.80
2018-05-01T04:20:52.012Z,6.80
2018-05-01T04:22:54.903Z,6.80
2018-05-01T04:24:57.781Z,6.80
2018-05-01T04:27:00.643Z,6.70
2018-05-01T04:29:03.496Z,6.60
2018-05-01T04:31:06.359Z,6.60
2018-05-01T04:33:09.979Z,6.60
2018-05-01T04:35:12.886Z,6.50
2018-05-01T04:37:15.744Z,6.60
2018-05-01T04:39:18.589Z,6.50
2018-05-01T04:41:22.280Z,6.50
2018-05-01T04:43:25.133Z,6.50
2018-05-01T04:45:28.018Z,6.50
2018-05-01T04:47:30.860Z,6.50
2018-05-01T04:49:33.678Z,6.50
2018-05-01T04:51:36.548Z,6.60
2018-05-01T04:53:39.370Z,6.60
2018-05-01T04:55:43.032Z,6.60
2018-05-01T04:57:45.926Z,6.60
2018-05-01T04:59:48.744Z,6.60
2018-05-01T05:01:52.398Z,6.60
2018-05-01T05:03:56.041Z,6.70
2018-05-01T05:05:59.650Z,6.70
2018-05-01T05:08:02.520Z,6.70
2018-05-01T05:10:05.434Z,6.70
2018-05-01T05:12:08.277Z,6.60
2018-05-01T05:14:11.153Z,6.60
2018-05-01T05:16:14.018Z,6.50
2018-05-01T05:18:16.883Z,6.50
2018-05-01T05:20:20.558Z,6.50
2018-05-01T05:22:23.433Z,6.50
2018-05-01T05:24:26.256Z,6.60
2018-05-01T05:26:29.187Z,6.50
2018-05-01T05:28:32.070Z,6.50
2018-05-01T05:30:34.957Z,6.50
2018-05-01T05:32:37.803Z,6.50
2018-05-01T05:34:40.666Z,6.50
2018-05-01T05:36:44.317Z,6.60
2018-05-01T05:38:47.149Z,6.60
2018-05-01T05:40:50.785Z,6.60
2018-05-01T05:42:53.624Z,6.60
2018-05-01T05:44:57.245Z,6.70
2018-05-01T05:47:00.190Z,6.70
2018-05-01T05:49:03.039Z,6.70
2018-05-01T05:51:05.956Z,6.80
2018-05-01T05:53:08.830Z,6.90
2018-05-01T05:55:11.680Z,6.90
2018-05-01T05:57:14.518Z,7.00
2018-05-01T05:59:18.168Z,7.10
2018-05-01T06:01:21.059Z,7.10
2018-05-01T06:03:23.932Z,7.10
2018-05-01T06:05:26.770Z,7.20
2018-05-01T06:07:29.616Z,7.40
2018-05-01T06:09:33.240Z,7.60
2018-05-01T06:11:36.957Z,7.60
2018-05-01T06:13:39.799Z,7.50
2018-05-01T06:15:43.467Z,7.40
2018-05-01T06:17:46.351Z,7.40
2018-05-01T06:19:49.960Z,7.30
2018-05-01T06:21:52.897Z,7.30
2018-05-01T06:23:55.637Z,7.20
2018-05-01T06:25:59.257Z,7.10
2018-05-01T06:28:02.122Z,7.10
2018-05-01T06:30:04.973Z,7.10
2018-05-01T06:32:07.816Z,7.10
2018-05-01T06:34:10.713Z,7.20
2018-05-01T06:36:13.616Z,7.20
2018-05-01T06:38:16.446Z,7.10
2018-05-01T06:40:19.281Z,7.10
2018-05-01T06:42:22.154Z,7.10
2018-05-01T06:44:25.005Z,7.10
2018-05-01T06:46:27.902Z,7.10
2018-05-01T06:48:30.732Z,7.10
2018-05-01T06:50:33.675Z,7.10
2018-05-01T06:52:36.508Z,7.20
2018-05-01T06:54:39.368Z,7.20
2018-05-01T06:56:42.333Z,7.30
2018-05-01T06:58:45.191Z,7.20
2018-05-01T07:00:48.110Z,7.30
2018-05-01T07:02:51.715Z,7.30
2018-05-01T07:04:54.596Z,7.20
2018-05-01T07:06:57.457Z,7.20
2018-05-01T07:09:01.973Z,7.40
2018-05-01T07:11:04.877Z,7.30
2018-05-01T07:13:07.755Z,7.40
2018-05-01T07:15:10.665Z,7.40
2018-05-01T07:17:13.545Z,7.40
2018-05-01T07:19:16.388Z,7.30
2018-05-01T07:21:20.113Z,7.30
2018-05-01T07:23:22.914Z,7.40
2018-05-01T07:25:25.765Z,7.40
2018-05-01T07:27:28.672Z,7.50
2018-05-01T07:29:31.566Z,7.50
2018-05-01T07:31:34.530Z,7.60
2018-05-01T07:33:37.394Z,7.70
2018-05-01T07:35:43.103Z,7.70
2018-05-01T07:37:46.694Z,7.90
2018-05-01T07:39:49.556Z,7.80
2018-05-01T07:41:52.550Z,7.80
2018-05-01T07:43:55.319Z,7.80
2018-05-01T07:45:58.187Z,7.90
2018-05-01T07:48:01.043Z,7.80
2018-05-01T07:50:03.922Z,7.70
2018-05-01T07:52:06.828Z,7.70
2018-05-01T07:54:09.713Z,7.90
2018-05-01T07:56:13.367Z,7.90
2018-05-01T07:58:16.226Z,7.90
2018-05-01T08:00:19.836Z,8.00
2018-05-01T08:02:22.776Z,8.00
2018-05-01T08:04:25.704Z,7.90
2018-05-01T08:06:28.641Z,8.00
2018-05-01T08:08:31.516Z,8.00
2018-05-01T08:10:34.432Z,8.00
2018-05-01T08:12:38.178Z,7.90
2018-05-01T08:14:41.070Z,7.90
2018-05-01T08:16:43.943Z,8.00
2018-05-01T08:18:46.758Z,8.00
2018-05-01T08:20:49.630Z,8.10
2018-05-01T08:22:52.490Z,8.00
2018-05-01T08:24:55.350Z,8.00
2018-05-01T08:26:58.265Z,8.10
2018-05-01T08:29:01.128Z,8.00
2018-05-01T08:31:03.979Z,8.00
2018-05-01T08:33:06.826Z,8.10
2018-05-01T08:35:10.671Z,8.30
2018-05-01T08:37:13.604Z,8.20
2018-05-01T08:39:16.481Z,8.40
2018-05-01T08:41:19.360Z,8.50
2018-05-01T08:43:22.191Z,8.60
2018-05-01T08:45:25.107Z,8.80
2018-05-01T08:47:27.984Z,8.80
2018-05-01T08:49:30.905Z,8.90
2018-05-01T08:51:34.576Z,9.30
2018-05-01T08:53:38.269Z,9.40
2018-05-01T08:55:41.136Z,9.30
2018-05-01T08:57:44.045Z,9.50
2018-05-01T08:59:46.877Z,9.80
2018-05-01T09:01:49.742Z,10.00
2018-05-01T09:03:52.607Z,9.90
2018-05-01T09:05:56.264Z,9.90
2018-05-01T09:07:59.108Z,9.90
2018-05-01T09:10:02.072Z,9.90
2018-05-01T09:12:05.031Z,9.80
2018-05-01T09:14:08.651Z,9.90
2018-05-01T09:16:11.499Z,9.80
2018-05-01T09:18:15.239Z,10.30
2018-05-01T09:20:18.812Z,10.70
2018-05-01T09:22:22.473Z,10.80
2018-05-01T09:24:25.484Z,10.70
2018-05-01T09:26:29.154Z,10.70
2018-05-01T09:28:32.009Z,10.70
2018-05-01T09:30:34.843Z,10.80
2018-05-01T09:32:38.099Z,11.00
2018-05-01T09:34:41.166Z,11.20
2018-05-01T09:36:44.071Z,11.30
2018-05-01T09:38:46.936Z,11.40
2018-05-01T09:40:49.810Z,11.40
2018-05-01T09:42:52.803Z,11.50
2018-05-01T09:44:55.696Z,11.70
2018-05-01T09:46:58.572Z,11.90
2018-05-01T09:49:01.427Z,11.90
2018-05-01T09:51:04.357Z,11.90
2018-05-01T09:53:07.760Z,12.00
2018-05-01T09:55:11.177Z,12.10
2018-05-01T09:57:14.617Z,12.30
2018-05-01T09:59:17.968Z,12.50
2018-05-01T10:01:21.344Z,12.60
2018-05-01T10:03:24.742Z,12.80
2018-05-01T10:05:29.625Z,12.90
2018-05-01T10:07:33.174Z,12.90
2018-05-01T10:09:36.556Z,13.00
2018-05-01T10:11:41.865Z,13.00
2018-05-01T10:13:45.734Z,13.20
2018-05-01T10:15:49.338Z,13.30
2018-05-01T10:17:52.805Z,13.20
2018-05-01T10:19:56.152Z,13.20
2018-05-01T10:22:00.308Z,12.30
2018-05-01T10:24:03.888Z,12.20
2018-05-01T10:26:07.321Z,12.20
2018-05-01T10:28:11.230Z,12.00
2018-05-01T10:30:14.834Z,11.80
2018-05-01T10:32:18.196Z,11.90
2018-05-01T10:34:22.390Z,12.00
2018-05-01T10:36:25.883Z,12.00
2018-05-01T10:38:29.325Z,11.90
2018-05-01T10:40:32.655Z,12.10
2018-05-01T10:42:36.153Z,12.20
2018-05-01T10:44:40.311Z,12.20
2018-05-01T10:46:43.759Z,12.20
2018-05-01T10:48:47.945Z,12.40
2018-05-01T10:50:51.527Z,12.40
2018-05-01T10:52:55.674Z,12.50
2018-05-01T10:55:00.006Z,12.60
2018-05-01T10:57:03.517Z,12.60
2018-05-01T10:59:06.924Z,12.80
2018-05-01T11:01:10.380Z,13.10
2018-05-01T11:03:13.892Z,13.30
2018-05-01T11:05:17.259Z,13.40
2018-05-01T11:07:20.651Z,13.40
2018-05-01T11:09:24.048Z,13.60
2018-05-01T11:11:27.904Z,13.70
2018-05-01T11:13:31.476Z,13.60
2018-05-01T11:15:35.631Z,13.20
2018-05-01T11:17:39.286Z,13.20
2018-05-01T11:19:42.698Z,13.20
2018-05-01T11:21:46.025Z,13.20
2018-05-01T11:23:50.284Z,13.10
2018-05-01T11:25:53.712Z,13.20
2018-05-01T11:27:57.180Z,13.10
2018-05-01T11:30:00.587Z,13.00
2018-05-01T11:32:03.941Z,12.80
2018-05-01T11:34:07.347Z,12.90
2018-05-01T11:36:10.904Z,13.00
2018-05-01T11:38:14.606Z,13.30
2018-05-01T11:40:18.933Z,13.90
2018-05-01T11:42:22.925Z,13.90
2018-05-01T11:44:27.167Z,14.00
2018-05-01T11:46:30.628Z,14.00
2018-05-01T11:48:34.047Z,13.80
2018-05-01T11:50:37.574Z,13.70
2018-05-01T11:52:41.921Z,13.60
2018-05-01T11:54:45.923Z,13.60
2018-05-01T11:56:50.332Z,13.90
2018-05-01T11:58:53.731Z,13.90
2018-05-01T12:00:57.478Z,14.20
2018-05-01T12:03:02.594Z,14.50
2018-05-01T12:05:08.259Z,14.50
2018-05-01T12:07:11.707Z,14.50
2018-05-01T12:09:15.193Z,14.10
2018-05-01T12:11:18.562Z,13.70
2018-05-01T12:13:21.994Z,13.50
2018-05-01T12:15:25.384Z,13.50
2018-05-01T12:17:29.752Z,13.50
2018-05-01T12:21:43.139Z,13.90
2018-05-01T12:23:48.308Z,14.10
2018-05-01T12:25:52.377Z,14.10
2018-05-01T12:27:56.235Z,14.10
2018-05-01T12:30:00.682Z,14.30
2018-05-01T12:32:05.419Z,14.30
2018-05-01T12:34:09.558Z,14.40
2018-05-01T12:36:13.134Z,14.20
2018-05-01T12:38:17.842Z,14.00
2018-05-01T12:40:22.883Z,14.00
2018-05-01T12:42:27.594Z,14.60
2018-05-01T12:44:31.897Z,14.60
2018-05-01T12:46:36.456Z,15.20
2018-05-01T12:48:39.958Z,15.20
2018-05-01T12:50:44.284Z,15.20
2018-05-01T12:52:47.897Z,15.20
2018-05-01T12:54:52.370Z,14.70
2018-05-01T12:56:57.828Z,14.50
2018-05-01T12:59:01.380Z,14.30
2018-05-01T13:01:05.528Z,14.60
2018-05-01T13:03:08.921Z,14.60
2018-05-01T13:05:12.396Z,14.80
2018-05-01T13:07:16.732Z,14.80
2018-05-01T13:09:20.123Z,14.80
2018-05-01T13:11:23.501Z,14.90
2018-05-01T13:13:26.910Z,14.90
2018-05-01T13:15:30.260Z,14.90
2018-05-01T13:17:33.641Z,14.70
2018-05-01T13:19:37.048Z,14.70
2018-05-01T13:21:42.172Z,14.60
2018-05-01T13:23:46.558Z,14.70
2018-05-01T13:25:49.952Z,14.70
2018-05-01T13:27:53.453Z,14.70
2018-05-01T13:29:57.732Z,14.80
2018-05-01T13:32:01.230Z,14.80
2018-05-01T13:34:04.800Z,15.10
2018-05-01T13:36:08.160Z,15.10
2018-05-01T13:38:11.564Z,15.30
2018-05-01T13:40:14.938Z,15.50
2018-05-01T13:42:19.112Z,15.70
2018-05-01T13:44:22.988Z,15.70
2018-05-01T13:46:26.464Z,15.80
2018-05-01T13:48:29.888Z,15.60
2018-05-01T13:50:34.808Z,15.00
2018-05-01T13:52:38.167Z,15.00
2018-05-01T13:54:41.648Z,14.50
2018-05-01T13:56:45.018Z,14.10
2018-05-01T13:58:48.513Z,13.90
2018-05-01T14:00:52.062Z,13.80
2018-05-01T14:02:55.576Z,14.00
2018-05-01T14:04:59.692Z,14.10
2018-05-01T14:07:03.262Z,14.10
2018-05-01T14:09:07.364Z,14.30
2018-05-01T14:11:11.554Z,14.90
2018-05-01T14:13:15.388Z,14.90
2018-05-01T14:15:18.815Z,15.30
2018-05-01T14:17:22.244Z,15.60
2018-05-01T14:19:25.873Z,15.90
2018-05-01T14:21:29.250Z,16.20
2018-05-01T14:23:32.699Z,16.40
2018-05-01T14:25:36.355Z,16.60
2018-05-01T14:27:39.630Z,16.80
2018-05-01T14:29:43.041Z,16.60
2018-05-01T14:31:47.210Z,16.00
2018-05-01T14:33:50.613Z,16.00
2018-05-01T14:35:54.035Z,15.70
2018-05-01T14:37:57.501Z,15.50
2018-05-01T14:40:00.938Z,15.50
2018-05-01T14:42:05.173Z,15.50
2018-05-01T14:44:08.559Z,15.50
2018-05-01T14:46:12.730Z,15.40
2018-05-01T14:48:16.096Z,15.40
2018-05-01T14:50:19.469Z,15.30
2018-05-01T14:52:22.864Z,15.30
2018-05-01T14:54:26.245Z,15.40
2018-05-01T14:56:30.414Z,15.80
2018-05-01T14:58:34.634Z,16.00
2018-05-01T15:00:38.001Z,16.00
2018-05-01T15:02:53.140Z,16.20
2018-05-01T15:04:56.524Z,16.30
2018-05-01T15:06:59.870Z,16.40
2018-05-01T15:09:04.125Z,16.60
2018-05-01T15:11:07.504Z,16.60
2018-05-01T15:13:11.670Z,16.90
2018-05-01T15:15:15.030Z,16.90
2018-05-01T15:17:18.459Z,17.00
2018-05-01T15:19:21.902Z,16.90
2018-05-01T15:21:25.240Z,16.70
2018-05-01T15:23:28.757Z,16.20
2018-05-01T15:25:32.130Z,16.30
2018-05-01T15:27:35.498Z,16.10
2018-05-01T15:29:38.855Z,15.70
2018-05-01T15:31:42.963Z,15.50
2018-05-01T15:33:47.247Z,15.40
2018-05-01T15:35:50.635Z,15.30
2018-05-01T15:37:54.065Z,15.30
2018-05-01T15:39:57.486Z,15.40
2018-05-01T15:42:00.818Z,15.60
2018-05-01T15:44:05.356Z,15.70
2018-05-01T15:46:09.450Z,15.70
2018-05-01T15:48:12.838Z,15.70
2018-05-01T15:50:16.260Z,15.70
2018-05-01T15:52:19.651Z,15.70
2018-05-01T15:54:23.808Z,15.50
2018-05-01T15:56:27.131Z,15.50
2018-05-01T15:58:31.260Z,15.70
2018-05-01T16:00:34.609Z,15.70
2018-05-01T16:02:37.945Z,15.80
2018-05-01T16:04:41.341Z,16.00
2018-05-01T16:06:45.515Z,15.90
2018-05-01T16:08:48.921Z,15.90
2018-05-01T16:10:52.278Z,15.90
2018-05-01T16:12:55.654Z,15.70
2018-05-01T16:14:59.016Z,15.40
2018-05-01T16:17:03.124Z,15.10
2018-05-01T16:19:06.545Z,15.10
2018-05-01T16:21:09.897Z,15.10
2018-05-01T16:23:14.037Z,15.20
2018-05-01T16:25:17.417Z,15.20
2018-05-01T16:27:20.768Z,15.10
2018-05-01T16:29:24.129Z,15.00
2018-05-01T16:31:27.538Z,14.80
2018-05-01T16:33:30.881Z,14.70
2018-05-01T16:35:34.328Z,14.70
2018-05-01T16:37:37.734Z,14.60
2018-05-01T16:39:41.122Z,14.50
2018-05-01T16:41:44.452Z,14.50
2018-05-01T16:43:47.836Z,14.60
2018-05-01T16:45:51.153Z,14.60
2018-05-01T16:47:54.521Z,14.50
2018-05-01T16:49:58.657Z,14.40
2018-05-01T16:52:02.038Z,14.40
2018-05-01T16:54:05.417Z,14.40
2018-05-01T16:56:09.636Z,14.30
2018-05-01T16:58:13.071Z,14.30
2018-05-01T17:00:16.530Z,14.20
2018-05-01T17:02:19.931Z,14.10
2018-05-01T17:04:23.373Z,14.00
2018-05-01T17:06:26.734Z,13.90
2018-05-01T17:08:30.847Z,13.90
2018-05-01T17:10:34.207Z,13.80
2018-05-01T17:12:38.322Z,13.70
2018-05-01T17:14:41.738Z,13.70
2018-05-01T17:16:45.075Z,13.70
2018-05-01T17:18:48.407Z,13.70
2018-05-01T17:20:52.621Z,13.70
2018-05-01T17:22:56.027Z,13.70
2018-05-01T17:24:59.391Z,13.50
2018-05-01T17:27:02.749Z,13.40
2018-05-01T17:29:06.920Z,13.30
2018-05-01T17:31:11.006Z,13.30
2018-05-01T17:33:14.398Z,13.30
2018-05-01T17:35:17.834Z,13.30
2018-05-01T17:37:21.185Z,13.20
2018-05-01T17:39:24.550Z,13.10
2018-05-01T17:41:27.886Z,13.20
2018-05-01T17:43:31.218Z,13.20
2018-05-01T17:45:35.370Z,13.00
2018-05-01T17:47:39.559Z,13.00
2018-05-01T17:49:42.985Z,13.00
2018-05-01T17:51:46.354Z,12.90
2018-05-01T17:53:50.560Z,13.00
2018-05-01T17:55:54.069Z,12.90
2018-05-01T17:57:58.180Z,12.90
2018-05-01T18:00:01.710Z,12.90
2018-05-01T18:02:05.057Z,12.90
2018-05-01T18:04:08.394Z,12.80
2018-05-01T18:06:11.774Z,12.80
2018-05-01T18:08:15.188Z,12.80
2018-05-01T18:10:19.005Z,12.70
2018-05-01T18:12:22.565Z,12.70
2018-05-01T18:14:25.909Z,12.70
2018-05-01T18:16:30.282Z,12.60
2018-05-01T18:18:33.939Z,12.60
2018-05-01T18:20:39.178Z,12.60
2018-05-01T18:22:42.702Z,12.60
2018-05-01T18:24:48.467Z,12.40
2018-05-01T18:26:53.769Z,12.40
2018-05-01T18:28:58.067Z,12.30
2018-05-01T18:31:02.506Z,12.20
2018-05-01T18:33:06.162Z,12.10
2018-05-01T18:35:11.253Z,12.00
2018-05-01T18:37:14.664Z,12.00
2018-05-01T18:39:18.152Z,12.00
2018-05-01T18:41:25.909Z,12.00
2018-05-01T18:43:29.618Z,12.00
2018-05-01T18:45:33.789Z,11.90
2018-05-01T18:47:40.551Z,11.90
2018-05-01T18:49:45.773Z,11.90
2018-05-01T18:51:49.775Z,11.90
2018-05-01T18:53:53.371Z,11.80
2018-05-01T18:55:58.237Z,11.70
2018-05-01T18:58:02.109Z,11.70
2018-05-01T19:00:07.852Z,11.50
2018-05-01T19:02:13.809Z,11.40
2018-05-01T19:04:22.652Z,11.20
2018-05-01T19:06:28.599Z,11.00
2018-05-01T19:08:33.124Z,10.90
2018-05-01T19:10:36.704Z,10.90
2018-05-01T19:12:41.826Z,10.90
2018-05-01T19:14:46.295Z,10.90
2018-05-01T19:16:50.339Z,10.80
2018-05-01T19:18:56.132Z,10.70
2018-05-01T19:21:00.422Z,10.70
2018-05-01T19:23:04.434Z,10.70
2018-05-01T19:25:10.404Z,10.50
2018-05-01T19:27:16.318Z,10.40
2018-05-01T19:29:24.804Z,10.40
2018-05-01T19:31:30.122Z,10.40
2018-05-01T19:33:34.425Z,10.40
2018-05-01T19:35:38.978Z,10.40
2018-05-01T19:37:44.085Z,10.30
2018-05-01T19:39:52.002Z,10.30
2018-05-01T19:41:56.704Z,10.30
2018-05-01T19:44:00.681Z,10.30
2018-05-01T19:46:04.765Z,10.20
2018-05-01T19:48:08.212Z,10.00
2018-05-01T19:50:12.026Z,9.80
2018-05-01T19:52:16.176Z,9.70
2018-05-01T19:54:19.755Z,9.60
2018-05-01T19:56:24.915Z,9.60
2018-05-01T19:58:29.230Z,9.50
2018-05-01T20:00:32.697Z,9.50
2018-05-01T20:02:36.353Z,9.60
2018-05-01T20:04:39.885Z,9.60
2018-05-01T20:06:43.331Z,9.50
2018-05-01T20:08:47.669Z,9.50
2018-05-01T20:10:51.129Z,9.50
2018-05-01T20:12:55.331Z,9.50
2018-05-01T20:14:59.352Z,9.50
2018-05-01T20:17:03.855Z,9.50
2018-05-01T20:19:08.194Z,9.50
2018-05-01T20:21:12.426Z,9.40
2018-05-01T20:23:15.786Z,9.40
2018-05-01T20:25:19.682Z,9.40
2018-05-01T20:27:23.551Z,9.30
2018-05-01T20:29:28.419Z,9.30
2018-05-01T20:31:33.049Z,9.30
2018-05-01T20:33:39.049Z,9.30
2018-05-01T20:35:44.850Z,9.20
2018-05-01T20:37:48.956Z,9.20
2018-05-01T20:39:53.171Z,9.10
2018-05-01T20:41:56.845Z,9.10
2018-05-01T20:44:00.452Z,9.10
2018-05-01T20:46:05.328Z,9.00
2018-05-01T20:48:09.640Z,8.90
2018-05-01T20:50:13.910Z,8.90
2018-05-01T20:52:18.913Z,8.80
2018-05-01T20:54:22.527Z,8.80
2018-05-01T20:56:26.998Z,8.80
2018-05-01T20:58:30.982Z,8.80
2018-05-01T21:00:34.459Z,8.70
2018-05-01T21:02:38.025Z,8.70
2018-05-01T21:04:41.489Z,8.70
2018-05-01T21:06:46.072Z,8.60
2018-05-01T21:08:50.252Z,8.60
2018-05-01T21:10:53.679Z,8.60
2018-05-01T21:15:11.629Z,8.50
2018-05-01T21:17:16.669Z,8.50
2018-05-01T21:19:22.159Z,8.30
2018-05-01T21:21:27.852Z,8.30
2018-05-01T21:23:31.556Z,8.30
2018-05-01T21:25:37.497Z,8.30
2018-05-01T21:27:44.802Z,8.20
2018-05-01T21:29:48.601Z,8.20
2018-05-01T21:31:51.992Z,8.10
2018-05-01T21:33:55.966Z,8.00
2018-05-01T21:35:59.523Z,7.90
2018-05-01T21:38:03.007Z,7.80
2018-05-01T21:40:07.446Z,7.80
2018-05-01T21:42:10.855Z,7.80
2018-05-01T21:44:14.335Z,7.70
2018-05-01T21:46:18.543Z,7.70
2018-05-01T21:48:23.210Z,7.70
2018-05-01T21:50:26.930Z,7.70
2018-05-01T21:52:31.046Z,7.70
2018-05-01T21:54:34.625Z,7.60
2018-05-01T21:56:38.903Z,7.60
2018-05-01T21:58:42.652Z,7.50
2018-05-01T22:00:47.109Z,7.40
2018-05-01T22:02:52.211Z,7.30
2018-05-01T22:04:56.563Z,7.30
2018-05-01T22:07:00.795Z,7.20
2018-05-01T22:09:06.523Z,7.20
2018-05-01T22:11:11.361Z,7.20
2018-05-01T22:13:15.605Z,7.20
2018-05-01T22:15:19.033Z,7.20
2018-05-01T22:17:22.421Z,7.20
2018-05-01T22:19:26.536Z,7.10
2018-05-01T22:21:30.191Z,7.10
2018-05-01T22:23:33.583Z,7.10
2018-05-01T22:25:37.683Z,7.10
2018-05-01T22:27:41.026Z,7.10
2018-05-01T22:29:44.455Z,7.10
2018-05-01T22:31:47.842Z,6.90
2018-05-01T22:33:51.264Z,6.80
2018-05-01T22:35:54.609Z,6.70
2018-05-01T22:40:07.664Z,6.60
2018-05-01T22:42:11.094Z,6.60
2018-05-01T22:44:15.185Z,6.70
2018-05-01T22:46:19.321Z,6.80
2018-05-01T22:48:22.673Z,6.80
2018-05-01T22:50:26.066Z,6.80
2018-05-01T22:52:30.229Z,6.80
2018-05-01T22:54:33.649Z,6.90
2018-05-01T22:56:36.991Z,6.90
2018-05-01T22:58:41.174Z,6.80
2018-05-01T23:00:44.593Z,6.80
2018-05-01T23:02:48.755Z,6.70
2018-05-01T23:04:52.138Z,6.70
2018-05-01T23:06:55.494Z,6.60
2018-05-01T23:08:59.632Z,6.60
2018-05-01T23:11:02.991Z,6.60
2018-05-01T23:13:06.387Z,6.60
2018-05-01T23:15:09.720Z,6.50
2018-05-01T23:17:13.117Z,6.50
2018-05-01T23:19:16.458Z,6.50
2018-05-01T23:21:19.843Z,6.50
2018-05-01T23:23:23.311Z,6.40
2018-05-01T23:25:27.435Z,6.30
2018-05-01T23:27:31.602Z,6.30
2018-05-01T23:29:34.953Z,6.30
2018-05-01T23:31:39.090Z,6.10
2018-05-01T23:33:42.461Z,6.10
2018-05-01T23:35:45.859Z,6.10
2018-05-01T23:37:49.272Z,6.00
2018-05-01T23:39:52.699Z,5.90
2018-05-01T23:41:56.064Z,5.90
2018-05-01T23:43:59.544Z,5.90
2018-05-01T23:46:02.910Z,5.80
2018-05-01T23:48:06.272Z,5.80
2018-05-01T23:50:09.615Z,5.70
2018-05-01T23:52:13.004Z,5.70
2018-05-01T23:54:16.445Z,5.70
2018-05-01T23:56:19.801Z,5.60
2018-05-01T23:58:23.172Z,5.60
